Mc Allen Miller International Airport
KMFE : rendu visible

Aérodrome :











RETROUVEZ-NOUS SUR...

 
LOGIN :

S'inscrire | Disclaimer

   EN    FR    IT 

 









Légende :    VFR   VFR Marginal   IFR   IFR Intensif   IFR Très Intensif
Visi : 
Plafond : 
>= 8 km
>= 3000ft
5 à 8 km
1000 à 3000 ft
1500m à 5 km
500 à 1000 ft
800 à 1500m
200 à 500 ft
< 800m
< 200 ft
Symboles :   Orages  Brouillard  Fortes neiges  Fortes précipitations  Vent > 20 kt






- Altitude de l'aérodrome : 107 ft
- Code IATA : MFE


KMFE - Mc Allen Miller International

DERNIER METAR :
  • 170953Z AUTO 00000KT 10SM CLR 13/11 A3003 RMK AO2 SLP168 T01330111

METARs EXPIRÉS :
  • 170853Z AUTO 00000KT 7SM CLR 13/11 A3004 RMK AO2 SLP172 T01280111 58009
  • 170753Z AUTO 00000KT 10SM CLR 13/11 A3006 RMK AO2 SLP177 T01330111

TAF KMFE
Valide du 17 à 06h jusqu'au 18 à 06h UTC


170531Z 1706/1806 12005KT P6SM FEW040 BKN250
FM171600 15007KT P6SM SCT040 BKN250



MET'MAP, la Météo Aéronautique d'un coup d'oeil ! - Copyright ORBIFLY Décembre 2007 - Disclaimer

ORBIFLY MET'MAP TEAM :

Programmation & Développement : Alexandra Zaïnal
Conception & Développement : Baudouin d'Aumeries
Co-Programmation & Développement : Marc-Olivier Méhu
Soutien technique & logistique : Manuel Goepfert

Contact : metmap@orbifly.com




SOURCES & CREDITS :

   NOAA       Earth
Advisory